Time;durP1;ratioP1;P1;durP2;ratioP2;P2;SDS_P1;SDS_P2;PMS_P1;PMS_P2;Temp;Humidity;BMP_temperature;BMP_pressure;BME280_temperature;BME280_humidity;BME280_pressure;Samples;Min_cycle;Max_cycle;Signal;HPM_P1;HPM_P2
2022/12/16 00:00:14;;;;;;;17.50;9.40;;;;;;;3.02;74.64;99611.64;24630;1326;3027572;-67
2022/12/16 00:02:43;;;;;;;18.00;10.20;;;;;;;2.98;74.83;99617.47;24675;1327;3051332;-70
2022/12/16 00:05:12;;;;;;;17.00;9.30;;;;;;;2.94;74.98;99618.79;24548;1320;3028218;-64
2022/12/16 00:07:46;;;;;;;18.00;9.00;;;;;;;2.93;75.32;99622.46;24576;1335;3057257;-67
2022/12/16 00:10:15;;;;;;;18.60;9.80;;;;;;;2.96;75.19;99630.86;24648;1327;3026628;-66
2022/12/16 00:12:44;;;;;;;19.30;10.20;;;;;;;2.91;75.32;99630.30;24635;1318;3025980;-67
2022/12/16 00:15:13;;;;;;;21.10;11.80;;;;;;;2.86;75.43;99638.39;24532;1326;3056590;-70
2022/12/16 00:17:42;;;;;;;19.30;10.60;;;;;;;2.84;75.32;99640.69;24579;1327;3027990;-68
2022/12/16 00:20:11;;;;;;;17.30;8.80;;;;;;;2.85;75.57;99630.80;24543;1327;3049701;-66
2022/12/16 00:22:40;;;;;;;14.60;7.20;;;;;;;3.45;74.37;99632.80;24593;1318;3028307;-66
2022/12/16 00:25:09;;;;;;;14.50;7.40;;;;;;;4.25;72.69;99640.11;24645;1322;3068421;-64
2022/12/16 00:27:38;;;;;;;20.10;9.90;;;;;;;4.27;71.25;99641.76;24629;1312;3028448;-69
2022/12/16 00:30:08;;;;;;;20.00;10.70;;;;;;;4.12;71.59;99650.55;24556;1330;3049666;-69
2022/12/16 00:32:38;;;;;;;22.10;12.60;;;;;;;3.84;72.00;99650.87;24591;1327;3027115;-66
2022/12/16 00:35:07;;;;;;;20.20;11.90;;;;;;;3.49;72.86;99647.56;24546;1327;3026094;-65
2022/12/16 00:37:36;;;;;;;23.70;13.40;;;;;;;3.34;73.69;99646.79;24596;1335;3049514;-68
2022/12/16 00:40:06;;;;;;;29.90;14.80;;;;;;;3.19;74.11;99650.15;24546;1319;3028844;-66
2022/12/16 00:42:35;;;;;;;29.90;16.10;;;;;;;2.99;74.88;99665.03;24588;1327;3054391;-68
2022/12/16 00:45:05;;;;;;;31.50;16.30;;;;;;;2.88;75.33;99670.70;24617;1324;3026001;-68
2022/12/16 00:47:35;;;;;;;29.00;15.90;;;;;;;2.67;76.19;99666.03;24564;1320;3052208;-68
2022/12/16 00:50:05;;;;;;;23.70;13.80;;;;;;;2.62;76.80;99654.22;24648;1313;3026518;-66
2022/12/16 00:52:34;;;;;;;25.10;14.30;;;;;;;2.67;76.43;99648.39;24675;1326;3052478;-69
2022/12/16 00:55:03;;;;;;;21.40;12.30;;;;;;;2.76;76.40;99636.40;24577;1327;3026654;-65
2022/12/16 00:57:32;;;;;;;28.80;13.90;;;;;;;2.79;75.88;99632.17;24626;1324;3051161;-70
2022/12/16 01:00:04;;;;;;;26.50;14.00;;;;;;;2.78;75.54;99628.05;24658;1327;3028894;-66
2022/12/16 01:02:33;;;;;;;28.00;14.50;;;;;;;2.69;75.86;99635.02;24584;1321;3028832;-63
2022/12/16 01:05:03;;;;;;;26.00;13.30;;;;;;;2.60;76.34;99630.74;24604;1325;3028158;-69
2022/12/16 01:07:33;;;;;;;25.70;14.20;;;;;;;2.59;76.65;99621.80;24684;1326;3052750;-67
2022/12/16 01:10:04;;;;;;;28.30;13.60;;;;;;;2.61;76.78;99616.36;24556;1320;3028337;-64
2022/12/16 01:12:34;;;;;;;26.20;13.70;;;;;;;2.54;76.68;99613.08;24581;1318;3026340;-68
2022/12/16 01:15:05;;;;;;;22.20;11.40;;;;;;;2.50;77.28;99608.52;24551;1327;3025372;-66
2022/12/16 01:17:35;;;;;;;20.70;9.60;;;;;;;3.03;75.93;99593.79;24546;1319;3026045;-66
2022/12/16 01:20:06;;;;;;;22.90;11.30;;;;;;;3.57;73.65;99582.23;24684;1327;3025188;-69
2022/12/16 01:22:35;;;;;;;20.40;11.40;;;;;;;3.71;73.06;99575.73;24624;1326;3026340;-67
2022/12/16 01:25:04;;;;;;;24.20;11.60;;;;;;;3.50;72.77;99563.55;24619;1322;3028369;-66
2022/12/16 01:27:33;;;;;;;21.50;11.00;;;;;;;3.30;73.33;99567.41;24563;1325;3049174;-62
2022/12/16 01:30:03;;;;;;;16.50;9.90;;;;;;;3.16;73.76;99574.25;24607;1327;3028453;-67
2022/12/16 01:32:32;;;;;;;19.50;11.00;;;;;;;2.86;74.16;99578.36;24619;1326;3069179;-64
2022/12/16 01:35:02;;;;;;;20.50;11.30;;;;;;;2.72;75.18;99585.30;24685;1325;3026350;-64
2022/12/16 01:37:31;;;;;;;19.00;9.30;;;;;;;2.71;75.33;99583.58;24571;1335;3049402;-64
2022/12/16 01:40:00;;;;;;;20.00;10.00;;;;;;;2.61;75.28;99591.30;24604;1312;3028339;-64
2022/12/16 01:42:32;;;;;;;20.10;10.20;;;;;;;2.56;75.96;99592.11;24599;1327;3053107;-65
2022/12/16 01:45:23;;;;;;;18.70;9.60;;;;;;;2.58;75.99;99595.36;24531;1327;3025612;-65
2022/12/16 01:47:52;;;;;;;15.60;8.10;;;;;;;2.55;75.84;99589.20;24651;1327;3067833;-65
2022/12/16 01:50:22;;;;;;;15.60;8.70;;;;;;;2.46;76.12;99584.94;24563;1327;3028107;-65
2022/12/16 01:52:53;;;;;;;19.10;10.10;;;;;;;2.35;76.24;99587.80;24581;1313;3028565;-67
2022/12/16 01:55:28;;;;;;;18.20;8.80;;;;;;;2.30;76.69;99589.15;24638;1326;3068997;-68
2022/12/16 01:58:08;;;;;;;18.00;9.40;;;;;;;2.20;76.79;99584.52;24591;1327;3049266;-65
2022/12/16 02:00:39;;;;;;;16.60;7.70;;;;;;;2.12;77.02;99596.48;24577;1327;3056789;-67
2022/12/16 02:03:09;;;;;;;15.80;8.50;;;;;;;2.12;77.20;99616.52;24585;1324;3028828;-66
2022/12/16 02:05:39;;;;;;;18.40;9.40;;;;;;;2.06;77.30;99635.15;24553;1323;3049609;-68
2022/12/16 02:08:08;;;;;;;15.90;8.40;;;;;;;1.98;77.57;99656.06;24493;1328;3025818;-64
2022/12/16 02:10:43;;;;;;;20.80;9.40;;;;;;;1.94;77.88;99667.22;24474;1330;3026187;-66
2022/12/16 02:13:35;;;;;;;13.00;6.50;;;;;;;1.95;78.04;99658.39;24505;1330;3049032;-64
2022/12/16 02:16:13;;;;;;;9.60;5.60;;;;;;;2.73;76.27;99637.16;24529;1329;3056473;-68
2022/12/16 02:19:00;;;;;;;14.30;7.40;;;;;;;3.31;73.63;99631.11;24544;1325;3052653;-61
2022/12/16 02:21:44;;;;;;;15.80;8.70;;;;;;;3.36;72.98;99617.13;24495;1325;3053693;-66
2022/12/16 02:24:13;;;;;;;17.10;7.80;;;;;;;3.25;73.16;99611.04;24459;1322;3051157;-67
2022/12/16 02:26:59;;;;;;;13.90;7.60;;;;;;;3.15;73.55;99604.89;24565;1328;3027640;-66
2022/12/16 02:30:01;;;;;;;14.60;7.70;;;;;;;2.88;73.48;99601.14;24596;1329;3048451;-68
2022/12/16 02:32:42;;;;;;;18.90;9.00;;;;;;;2.65;74.05;99600.69;24537;1328;3068741;-64
2022/12/16 02:35:39;;;;;;;15.70;9.20;;;;;;;2.45;74.93;99604.16;23828;1344;4542149;-68
2022/12/16 02:38:36;;;;;;;15.90;8.90;;;;;;;2.33;75.24;99615.68;24573;1331;3057030;-67
2022/12/16 02:41:39;;;;;;;16.00;8.90;;;;;;;2.28;75.39;99613.05;24604;1336;3051209;-65
2022/12/16 02:44:09;;;;;;;15.30;8.40;;;;;;;2.06;76.19;99616.15;24582;1320;3053372;-69
2022/12/16 02:46:40;;;;;;;16.50;9.00;;;;;;;2.04;76.50;99615.70;24544;1323;3026535;-67
2022/12/16 02:49:12;;;;;;;17.10;8.50;;;;;;;1.98;76.52;99620.48;24527;1333;3026580;-61
2022/12/16 02:51:41;;;;;;;15.10;8.10;;;;;;;1.93;76.92;99632.33;24505;1330;3026049;-65
2022/12/16 02:54:10;;;;;;;17.60;9.30;;;;;;;1.94;76.99;99644.59;24550;1331;3025913;-65
2022/12/16 02:56:49;;;;;;;16.20;8.70;;;;;;;1.98;76.98;99660.22;24495;1328;3052321;-65
2022/12/16 02:59:26;;;;;;;22.40;9.50;;;;;;;1.92;76.98;99675.55;24512;1328;3049114;-68
2022/12/16 03:02:03;;;;;;;16.60;9.10;;;;;;;1.78;77.48;99678.96;24516;1326;3068174;-70
2022/12/16 03:04:39;;;;;;;17.50;9.20;;;;;;;1.81;77.50;99684.24;24519;1330;3050450;-63
2022/12/16 03:07:11;;;;;;;15.60;9.00;;;;;;;1.85;77.34;99690.39;24561;1330;3056803;-66
2022/12/16 03:09:40;;;;;;;15.20;7.20;;;;;;;1.80;77.34;99700.16;24522;1319;3026834;-68
2022/12/16 03:12:12;;;;;;;13.80;7.20;;;;;;;2.30;76.53;99701.84;24474;1330;3028365;-63
2022/12/16 03:14:44;;;;;;;17.80;8.50;;;;;;;2.95;74.55;99705.48;24482;1333;3025314;-64
2022/12/16 03:17:13;;;;;;;18.90;8.80;;;;;;;3.16;73.77;99701.62;24483;1329;3026507;-68
2022/12/16 03:19:47;;;;;;;22.90;10.80;;;;;;;3.10;73.58;99695.23;24444;1339;3025921;-68
2022/12/16 03:22:19;;;;;;;18.60;9.10;;;;;;;3.02;74.00;99692.85;24549;1329;3026525;-67
2022/12/16 03:24:48;;;;;;;19.40;9.60;;;;;;;2.89;73.82;99695.40;24566;1321;3026568;-70
2022/12/16 03:27:33;;;;;;;19.60;10.40;;;;;;;2.81;74.16;99692.48;24482;1319;3028414;-67
2022/12/16 03:30:11;;;;;;;18.50;10.10;;;;;;;2.74;74.32;99685.23;24501;1318;3070632;-67
2022/12/16 03:32:54;;;;;;;19.90;11.20;;;;;;;2.64;74.33;99683.23;24511;1330;3050651;-65
2022/12/16 03:35:43;;;;;;;18.10;10.20;;;;;;;2.55;74.74;99681.02;24501;1329;3056700;-66
2022/12/16 03:38:13;;;;;;;21.40;10.30;;;;;;;2.51;75.12;99686.14;24532;1328;3052117;-68
2022/12/16 03:40:42;;;;;;;18.60;10.60;;;;;;;2.42;75.08;99700.00;24606;1330;3028210;-69
2022/12/16 03:43:13;;;;;;;21.60;11.80;;;;;;;2.29;75.82;99719.85;24632;1323;3026615;-66
2022/12/16 03:45:44;;;;;;;20.40;11.10;;;;;;;2.26;76.23;99737.89;24600;1329;3051336;-64
2022/12/16 03:48:14;;;;;;;29.50;12.90;;;;;;;2.13;76.39;99744.73;24546;1325;3026384;-67
2022/12/16 03:50:43;;;;;;;23.30;12.00;;;;;;;1.90;77.19;99743.66;24662;1336;3026314;-67
2022/12/16 03:53:12;;;;;;;26.80;13.00;;;;;;;1.92;77.38;99728.41;24626;1319;3028270;-66
2022/12/16 03:55:41;;;;;;;21.70;12.80;;;;;;;1.93;77.80;99719.23;24664;1334;3052536;-62
2022/12/16 03:58:14;;;;;;;23.40;12.30;;;;;;;1.94;77.83;99723.34;24601;1321;3028122;-66
2022/12/16 04:00:43;;;;;;;21.90;11.70;;;;;;;1.96;77.78;99732.46;24547;1327;3025891;-67
2022/12/16 04:03:12;;;;;;;19.10;8.90;;;;;;;2.00;77.91;99729.10;24610;1334;3052677;-68
2022/12/16 04:05:44;;;;;;;18.70;9.10;;;;;;;2.59;76.49;99722.06;24619;1319;3028226;-63
2022/12/16 04:08:13;;;;;;;20.40;10.20;;;;;;;3.32;74.22;99722.67;24638;1323;3028793;-66
2022/12/16 04:24:48;;;;;;;27.20;12.20;;;;;;;2.92;73.79;99733.75;24567;1330;3052088;-68
2022/12/16 04:27:23;;;;;;;24.70;12.70;;;;;;;2.84;74.42;99738.80;24529;1321;3025693;-66
